sensor_id;sensor_type;location;lat;lon;timestamp;pressure;altitude;pressure_sealevel;temperature
48628;BMP280;34424;52.234;6.500;2023-12-29T00:03:50;100505.3;;;8.01
48628;BMP280;34424;52.234;6.500;2023-12-29T00:08:50;100508.7;;;8.13
48628;BMP280;34424;52.234;6.500;2023-12-29T00:13:50;100502.4;;;8.38
48628;BMP280;34424;52.234;6.500;2023-12-29T00:18:50;100493.1;;;8.47
48628;BMP280;34424;52.234;6.500;2023-12-29T00:23:50;100482.4;;;8.55
48628;BMP280;34424;52.234;6.500;2023-12-29T00:28:50;100503.1;;;8.62
48628;BMP280;34424;52.234;6.500;2023-12-29T00:33:50;100481.4;;;8.64
48628;BMP280;34424;52.234;6.500;2023-12-29T00:38:50;100475.3;;;8.72
48628;BMP280;34424;52.234;6.500;2023-12-29T00:43:50;100476.7;;;8.79
48628;BMP280;34424;52.234;6.500;2023-12-29T00:48:50;100465.5;;;8.83
48628;BMP280;34424;52.234;6.500;2023-12-29T00:53:50;100456.3;;;8.9
48628;BMP280;34424;52.234;6.500;2023-12-29T00:58:50;100456;;;8.88
48628;BMP280;34424;52.234;6.500;2023-12-29T01:03:50;100465;;;8.39
48628;BMP280;34424;52.234;6.500;2023-12-29T01:08:50;100464.1;;;7.96
48628;BMP280;34424;52.234;6.500;2023-12-29T01:13:50;100448.4;;;7.64
48628;BMP280;34424;52.234;6.500;2023-12-29T01:18:50;100454.5;;;7.55
48628;BMP280;34424;52.234;6.500;2023-12-29T01:23:50;100449.8;;;7.49
48628;BMP280;34424;52.234;6.500;2023-12-29T01:28:50;100441.2;;;7.56
48628;BMP280;34424;52.234;6.500;2023-12-29T01:33:50;100438.9;;;7.77
48628;BMP280;34424;52.234;6.500;2023-12-29T01:38:50;100434.4;;;8.11
48628;BMP280;34424;52.234;6.500;2023-12-29T01:48:50;100438.1;;;8.53
48628;BMP280;34424;52.234;6.500;2023-12-29T01:53:50;100442.2;;;8.61
48628;BMP280;34424;52.234;6.500;2023-12-29T01:58:50;100429.6;;;8.65
48628;BMP280;34424;52.234;6.500;2023-12-29T02:03:50;100427.7;;;8.66
48628;BMP280;34424;52.234;6.500;2023-12-29T02:08:50;100443.1;;;8.63
48628;BMP280;34424;52.234;6.500;2023-12-29T02:13:50;100426.9;;;8.57
48628;BMP280;34424;52.234;6.500;2023-12-29T02:18:50;100450;;;8.57
48628;BMP280;34424;52.234;6.500;2023-12-29T02:23:50;100438;;;8.57
48628;BMP280;34424;52.234;6.500;2023-12-29T02:28:54;100427.3;;;8.46
48628;BMP280;34424;52.234;6.500;2023-12-29T02:33:50;100410.7;;;8.46
48628;BMP280;34424;52.234;6.500;2023-12-29T02:38:50;100412.4;;;8.35
48628;BMP280;34424;52.234;6.500;2023-12-29T02:43:50;100399.7;;;8.22
48628;BMP280;34424;52.234;6.500;2023-12-29T02:48:50;100405.4;;;8.1
48628;BMP280;34424;52.234;6.500;2023-12-29T02:53:50;100409.7;;;7.88
48628;BMP280;34424;52.234;6.500;2023-12-29T02:58:50;100414.7;;;7.75
48628;BMP280;34424;52.234;6.500;2023-12-29T03:03:50;100408.5;;;7.83
48628;BMP280;34424;52.234;6.500;2023-12-29T03:08:50;100417.8;;;8
48628;BMP280;34424;52.234;6.500;2023-12-29T03:13:50;100419.6;;;7.85
48628;BMP280;34424;52.234;6.500;2023-12-29T03:18:50;100418;;;7.71
48628;BMP280;34424;52.234;6.500;2023-12-29T03:23:50;100421.6;;;7.62
48628;BMP280;34424;52.234;6.500;2023-12-29T03:28:50;100417.8;;;7.73
48628;BMP280;34424;52.234;6.500;2023-12-29T03:33:50;100419.9;;;7.67
48628;BMP280;34424;52.234;6.500;2023-12-29T03:38:50;100416.7;;;7.59
48628;BMP280;34424;52.234;6.500;2023-12-29T03:43:50;100413.9;;;7.39
48628;BMP280;34424;52.234;6.500;2023-12-29T03:48:50;100416.7;;;7.3
48628;BMP280;34424;52.234;6.500;2023-12-29T03:53:50;100415.2;;;7.22
48628;BMP280;34424;52.234;6.500;2023-12-29T03:58:50;100425.1;;;7.2
48628;BMP280;34424;52.234;6.500;2023-12-29T04:03:50;100439.5;;;7.2
48628;BMP280;34424;52.234;6.500;2023-12-29T04:08:50;100437.5;;;7.17
48628;BMP280;34424;52.234;6.500;2023-12-29T04:13:50;100442.4;;;7.16
48628;BMP280;34424;52.234;6.500;2023-12-29T04:18:50;100428.9;;;7.12
48628;BMP280;34424;52.234;6.500;2023-12-29T04:23:50;100414.6;;;7.06
48628;BMP280;34424;52.234;6.500;2023-12-29T04:28:50;100416.5;;;7.06
48628;BMP280;34424;52.234;6.500;2023-12-29T04:33:50;100411.8;;;7.07
48628;BMP280;34424;52.234;6.500;2023-12-29T04:38:50;100416;;;7.19
48628;BMP280;34424;52.234;6.500;2023-12-29T04:43:50;100420.7;;;7.31
48628;BMP280;34424;52.234;6.500;2023-12-29T04:48:50;100418.3;;;7.33
48628;BMP280;34424;52.234;6.500;2023-12-29T04:53:50;100414.7;;;7.21
48628;BMP280;34424;52.234;6.500;2023-12-29T04:58:50;100424.3;;;7.14
48628;BMP280;34424;52.234;6.500;2023-12-29T05:03:50;100430;;;7.07
48628;BMP280;34424;52.234;6.500;2023-12-29T05:08:50;100421.5;;;7
48628;BMP280;34424;52.234;6.500;2023-12-29T05:13:50;100429;;;7.04
48628;BMP280;34424;52.234;6.500;2023-12-29T05:18:50;100419.3;;;6.99
48628;BMP280;34424;52.234;6.500;2023-12-29T05:23:50;100419.1;;;7.09
48628;BMP280;34424;52.234;6.500;2023-12-29T05:28:50;100419.3;;;7.18
48628;BMP280;34424;52.234;6.500;2023-12-29T05:33:50;100416.2;;;7.32
48628;BMP280;34424;52.234;6.500;2023-12-29T05:38:50;100417.9;;;7.46
48628;BMP280;34424;52.234;6.500;2023-12-29T05:43:50;100425.1;;;7.51
48628;BMP280;34424;52.234;6.500;2023-12-29T05:48:50;100431.6;;;7.56
48628;BMP280;34424;52.234;6.500;2023-12-29T05:53:50;100444.5;;;7.6
48628;BMP280;34424;52.234;6.500;2023-12-29T05:58:50;100450.1;;;7.65
48628;BMP280;34424;52.234;6.500;2023-12-29T06:03:50;100455.1;;;7.71
48628;BMP280;34424;52.234;6.500;2023-12-29T06:08:50;100456.5;;;7.75
48628;BMP280;34424;52.234;6.500;2023-12-29T06:13:50;100433.2;;;7.85
48628;BMP280;34424;52.234;6.500;2023-12-29T06:18:50;100435.5;;;7.93
48628;BMP280;34424;52.234;6.500;2023-12-29T06:23:50;100444.3;;;8.01
48628;BMP280;34424;52.234;6.500;2023-12-29T06:28:50;100446.3;;;8.01
48628;BMP280;34424;52.234;6.500;2023-12-29T06:33:50;100438.8;;;7.99
48628;BMP280;34424;52.234;6.500;2023-12-29T06:38:50;100440.7;;;7.97
48628;BMP280;34424;52.234;6.500;2023-12-29T06:43:50;100437.4;;;8.03
48628;BMP280;34424;52.234;6.500;2023-12-29T06:48:50;100439.6;;;8.11
48628;BMP280;34424;52.234;6.500;2023-12-29T06:53:50;100439;;;8.11
48628;BMP280;34424;52.234;6.500;2023-12-29T06:58:50;100440.7;;;8.05
48628;BMP280;34424;52.234;6.500;2023-12-29T07:03:50;100432;;;7.91
48628;BMP280;34424;52.234;6.500;2023-12-29T07:08:50;100425.5;;;7.91
48628;BMP280;34424;52.234;6.500;2023-12-29T07:13:50;100435;;;8.04
48628;BMP280;34424;52.234;6.500;2023-12-29T07:18:50;100435.5;;;8.13
48628;BMP280;34424;52.234;6.500;2023-12-29T07:23:50;100426.5;;;8.13
48628;BMP280;34424;52.234;6.500;2023-12-29T07:28:50;100423.6;;;8.22
48628;BMP280;34424;52.234;6.500;2023-12-29T07:33:50;100429.8;;;8.36
48628;BMP280;34424;52.234;6.500;2023-12-29T07:38:50;100429.6;;;8.31
48628;BMP280;34424;52.234;6.500;2023-12-29T07:43:50;100441.6;;;8.23
48628;BMP280;34424;52.234;6.500;2023-12-29T07:48:50;100430;;;8.15
48628;BMP280;34424;52.234;6.500;2023-12-29T07:53:50;100425.1;;;8.15
48628;BMP280;34424;52.234;6.500;2023-12-29T07:58:50;100419.1;;;8.03
48628;BMP280;34424;52.234;6.500;2023-12-29T08:03:50;100430.2;;;8.03
48628;BMP280;34424;52.234;6.500;2023-12-29T08:08:50;100439.6;;;7.94
48628;BMP280;34424;52.234;6.500;2023-12-29T08:13:50;100432.8;;;7.82
48628;BMP280;34424;52.234;6.500;2023-12-29T08:18:50;100441.9;;;7.72
48628;BMP280;34424;52.234;6.500;2023-12-29T08:23:50;100441.9;;;7.71
48628;BMP280;34424;52.234;6.500;2023-12-29T08:28:50;100452.3;;;7.68
48628;BMP280;34424;52.234;6.500;2023-12-29T08:33:50;100445.8;;;7.43
48628;BMP280;34424;52.234;6.500;2023-12-29T08:38:50;100444.4;;;7.27
48628;BMP280;34424;52.234;6.500;2023-12-29T08:43:50;100435.8;;;7.24
48628;BMP280;34424;52.234;6.500;2023-12-29T08:48:50;100441.9;;;7.25
48628;BMP280;34424;52.234;6.500;2023-12-29T08:53:50;100432;;;7.28
48628;BMP280;34424;52.234;6.500;2023-12-29T08:58:50;100423.7;;;7.26
48628;BMP280;34424;52.234;6.500;2023-12-29T09:03:50;100433.1;;;7.32
48628;BMP280;34424;52.234;6.500;2023-12-29T09:08:50;100437.8;;;7.44
48628;BMP280;34424;52.234;6.500;2023-12-29T09:13:50;100441.4;;;7.43
48628;BMP280;34424;52.234;6.500;2023-12-29T09:18:50;100436.8;;;7.37
48628;BMP280;34424;52.234;6.500;2023-12-29T09:23:50;100447.5;;;7.4
48628;BMP280;34424;52.234;6.500;2023-12-29T09:28:50;100443.7;;;7.41
48628;BMP280;34424;52.234;6.500;2023-12-29T09:33:50;100439.5;;;7.46
48628;BMP280;34424;52.234;6.500;2023-12-29T09:38:50;100445.2;;;7.49
48628;BMP280;34424;52.234;6.500;2023-12-29T09:43:50;100444.7;;;7.54
48628;BMP280;34424;52.234;6.500;2023-12-29T09:48:50;100440;;;7.46
48628;BMP280;34424;52.234;6.500;2023-12-29T09:53:50;100448;;;7.47
48628;BMP280;34424;52.234;6.500;2023-12-29T09:58:50;100447.1;;;7.59
48628;BMP280;34424;52.234;6.500;2023-12-29T10:03:50;100447.4;;;7.74
48628;BMP280;34424;52.234;6.500;2023-12-29T10:08:50;100449.2;;;7.97
48628;BMP280;34424;52.234;6.500;2023-12-29T10:13:51;100443.4;;;8.2
48628;BMP280;34424;52.234;6.500;2023-12-29T10:18:52;100445.9;;;8.39
48628;BMP280;34424;52.234;6.500;2023-12-29T10:23:52;100449.2;;;8.57
48628;BMP280;34424;52.234;6.500;2023-12-29T10:28:50;100437.4;;;8.63
48628;BMP280;34424;52.234;6.500;2023-12-29T10:33:50;100436.1;;;9.1
48628;BMP280;34424;52.234;6.500;2023-12-29T10:38:50;100444.9;;;10
48628;BMP280;34424;52.234;6.500;2023-12-29T10:43:50;100441.9;;;10.18
48628;BMP280;34424;52.234;6.500;2023-12-29T10:48:50;100446.2;;;10.24
48628;BMP280;34424;52.234;6.500;2023-12-29T10:53:54;100457.8;;;9.41
48628;BMP280;34424;52.234;6.500;2023-12-29T10:58:50;100446.8;;;9.15
48628;BMP280;34424;52.234;6.500;2023-12-29T11:04:00;100449.8;;;8.99
48628;BMP280;34424;52.234;6.500;2023-12-29T11:08:50;100455.2;;;8.99
48628;BMP280;34424;52.234;6.500;2023-12-29T11:13:50;100461.7;;;9.04
48628;BMP280;34424;52.234;6.500;2023-12-29T11:18:50;100452;;;9.29
48628;BMP280;34424;52.234;6.500;2023-12-29T11:23:50;100464;;;9.28
48628;BMP280;34424;52.234;6.500;2023-12-29T11:28:50;100469.5;;;9.12
48628;BMP280;34424;52.234;6.500;2023-12-29T11:33:52;100461.3;;;9.24
48628;BMP280;34424;52.234;6.500;2023-12-29T11:38:52;100463;;;9.32
48628;BMP280;34424;52.234;6.500;2023-12-29T11:43:59;100458.1;;;9.43
48628;BMP280;34424;52.234;6.500;2023-12-29T11:48:56;100466.3;;;9.4
48628;BMP280;34424;52.234;6.500;2023-12-29T11:53:50;100445.5;;;9.42
48628;BMP280;34424;52.234;6.500;2023-12-29T11:58:50;100445.6;;;9.39
48628;BMP280;34424;52.234;6.500;2023-12-29T12:03:50;100457.8;;;9.51
48628;BMP280;34424;52.234;6.500;2023-12-29T12:08:50;100469.2;;;9.59
48628;BMP280;34424;52.234;6.500;2023-12-29T12:13:50;100458.4;;;9.68
48628;BMP280;34424;52.234;6.500;2023-12-29T12:18:50;100469.9;;;9.7
48628;BMP280;34424;52.234;6.500;2023-12-29T12:23:50;100471;;;9.69
48628;BMP280;34424;52.234;6.500;2023-12-29T12:28:50;100473.5;;;9.74
48628;BMP280;34424;52.234;6.500;2023-12-29T12:33:56;100460.8;;;9.95
48628;BMP280;34424;52.234;6.500;2023-12-29T12:38:54;100462.4;;;9.99
48628;BMP280;34424;52.234;6.500;2023-12-29T12:44:00;100458.2;;;9.92
48628;BMP280;34424;52.234;6.500;2023-12-29T12:48:50;100455.5;;;10.27
48628;BMP280;34424;52.234;6.500;2023-12-29T12:53:50;100444.4;;;10.94
48628;BMP280;34424;52.234;6.500;2023-12-29T12:58:50;100457.6;;;10.05
48628;BMP280;34424;52.234;6.500;2023-12-29T13:03:50;100454;;;10.28
48628;BMP280;34424;52.234;6.500;2023-12-29T13:08:51;100450.8;;;9.98
48628;BMP280;34424;52.234;6.500;2023-12-29T13:13:50;100459.9;;;9.9
48628;BMP280;34424;52.234;6.500;2023-12-29T13:18:50;100452.1;;;10.06
48628;BMP280;34424;52.234;6.500;2023-12-29T13:23:50;100448.8;;;10.22
48628;BMP280;34424;52.234;6.500;2023-12-29T13:28:50;100448.3;;;10.06
48628;BMP280;34424;52.234;6.500;2023-12-29T13:33:52;100451;;;9.67
48628;BMP280;34424;52.234;6.500;2023-12-29T13:38:53;100449.8;;;9.47
48628;BMP280;34424;52.234;6.500;2023-12-29T13:43:50;100446.8;;;9.32
48628;BMP280;34424;52.234;6.500;2023-12-29T13:48:50;100443.9;;;9.26
48628;BMP280;34424;52.234;6.500;2023-12-29T13:53:50;100449.9;;;9.05
48628;BMP280;34424;52.234;6.500;2023-12-29T13:58:54;100468.9;;;8.96
48628;BMP280;34424;52.234;6.500;2023-12-29T14:03:50;100450.9;;;8.91
48628;BMP280;34424;52.234;6.500;2023-12-29T14:08:50;100438.5;;;8.76
48628;BMP280;34424;52.234;6.500;2023-12-29T14:13:50;100412.7;;;8.69
48628;BMP280;34424;52.234;6.500;2023-12-29T14:18:59;100422.9;;;8.59
48628;BMP280;34424;52.234;6.500;2023-12-29T14:24:00;100429.1;;;8.53
48628;BMP280;34424;52.234;6.500;2023-12-29T14:28:50;100438.8;;;8.52
48628;BMP280;34424;52.234;6.500;2023-12-29T14:33:50;100436.8;;;8.56
48628;BMP280;34424;52.234;6.500;2023-12-29T14:38:50;100449.7;;;8.54
48628;BMP280;34424;52.234;6.500;2023-12-29T14:43:50;100439.9;;;8.39
48628;BMP280;34424;52.234;6.500;2023-12-29T14:48:50;100431.8;;;8.28
48628;BMP280;34424;52.234;6.500;2023-12-29T14:53:50;100430.5;;;8.09
48628;BMP280;34424;52.234;6.500;2023-12-29T14:58:50;100426.3;;;8
48628;BMP280;34424;52.234;6.500;2023-12-29T15:03:50;100432.5;;;7.91
48628;BMP280;34424;52.234;6.500;2023-12-29T15:08:50;100430.6;;;7.81
48628;BMP280;34424;52.234;6.500;2023-12-29T15:13:50;100431.2;;;7.88
48628;BMP280;34424;52.234;6.500;2023-12-29T15:18:50;100424.2;;;7.98
48628;BMP280;34424;52.234;6.500;2023-12-29T15:23:50;100421.3;;;8.06
48628;BMP280;34424;52.234;6.500;2023-12-29T15:28:50;100408;;;8.1
48628;BMP280;34424;52.234;6.500;2023-12-29T15:33:50;100396.5;;;8.09
48628;BMP280;34424;52.234;6.500;2023-12-29T15:38:50;100384.9;;;7.79
48628;BMP280;34424;52.234;6.500;2023-12-29T15:43:50;100396.9;;;7.54
48628;BMP280;34424;52.234;6.500;2023-12-29T15:48:50;100384.4;;;7.29
48628;BMP280;34424;52.234;6.500;2023-12-29T15:53:50;100393.5;;;7.15
48628;BMP280;34424;52.234;6.500;2023-12-29T15:58:50;100394;;;6.94
48628;BMP280;34424;52.234;6.500;2023-12-29T16:03:50;100401.1;;;6.88
48628;BMP280;34424;52.234;6.500;2023-12-29T16:08:50;100394.5;;;6.96
48628;BMP280;34424;52.234;6.500;2023-12-29T16:13:50;100383.5;;;6.92
48628;BMP280;34424;52.234;6.500;2023-12-29T16:18:50;100404;;;6.83
48628;BMP280;34424;52.234;6.500;2023-12-29T16:23:50;100402.6;;;6.76
48628;BMP280;34424;52.234;6.500;2023-12-29T16:28:50;100373.2;;;6.71
48628;BMP280;34424;52.234;6.500;2023-12-29T16:33:50;100366.3;;;6.7
48628;BMP280;34424;52.234;6.500;2023-12-29T16:38:51;100362.7;;;6.72
48628;BMP280;34424;52.234;6.500;2023-12-29T16:43:50;100363;;;6.65
48628;BMP280;34424;52.234;6.500;2023-12-29T16:48:50;100353.9;;;6.61
48628;BMP280;34424;52.234;6.500;2023-12-29T16:53:50;100339.9;;;6.55
48628;BMP280;34424;52.234;6.500;2023-12-29T16:58:50;100331.1;;;6.5
48628;BMP280;34424;52.234;6.500;2023-12-29T17:03:50;100321.1;;;6.49
48628;BMP280;34424;52.234;6.500;2023-12-29T17:08:50;100319.1;;;6.52
48628;BMP280;34424;52.234;6.500;2023-12-29T17:13:50;100308.2;;;6.53
48628;BMP280;34424;52.234;6.500;2023-12-29T17:18:50;100297.6;;;6.62
48628;BMP280;34424;52.234;6.500;2023-12-29T17:23:50;100315.8;;;6.67
48628;BMP280;34424;52.234;6.500;2023-12-29T17:28:50;100309.7;;;6.88
48628;BMP280;34424;52.234;6.500;2023-12-29T17:33:50;100353.6;;;6.97
48628;BMP280;34424;52.234;6.500;2023-12-29T17:38:50;100426.6;;;5.47
48628;BMP280;34424;52.234;6.500;2023-12-29T17:43:50;100449.3;;;4.72
48628;BMP280;34424;52.234;6.500;2023-12-29T17:48:51;100426.2;;;4.43
48628;BMP280;34424;52.234;6.500;2023-12-29T17:53:50;100434.8;;;4.33
48628;BMP280;34424;52.234;6.500;2023-12-29T17:58:50;100434.1;;;4.28
48628;BMP280;34424;52.234;6.500;2023-12-29T18:03:50;100446;;;4.3
48628;BMP280;34424;52.234;6.500;2023-12-29T18:08:50;100447;;;4.33
48628;BMP280;34424;52.234;6.500;2023-12-29T18:13:50;100444.8;;;4.33
48628;BMP280;34424;52.234;6.500;2023-12-29T18:18:50;100437.3;;;4.31
48628;BMP280;34424;52.234;6.500;2023-12-29T18:23:50;100456.9;;;4.19
48628;BMP280;34424;52.234;6.500;2023-12-29T18:28:50;100469.8;;;4.19
48628;BMP280;34424;52.234;6.500;2023-12-29T18:33:50;100477.1;;;4.18
48628;BMP280;34424;52.234;6.500;2023-12-29T18:38:50;100474.4;;;4.21
48628;BMP280;34424;52.234;6.500;2023-12-29T18:43:51;100487.5;;;4.1
48628;BMP280;34424;52.234;6.500;2023-12-29T18:48:50;100494.8;;;4.15
48628;BMP280;34424;52.234;6.500;2023-12-29T18:53:50;100506.7;;;4.22
48628;BMP280;34424;52.234;6.500;2023-12-29T18:58:50;100507;;;4.26
48628;BMP280;34424;52.234;6.500;2023-12-29T19:03:50;100522.1;;;4.28
48628;BMP280;34424;52.234;6.500;2023-12-29T19:08:50;100532.7;;;4.27
48628;BMP280;34424;52.234;6.500;2023-12-29T19:13:50;100517.4;;;4.14
48628;BMP280;34424;52.234;6.500;2023-12-29T19:18:50;100512.5;;;3.92
48628;BMP280;34424;52.234;6.500;2023-12-29T19:23:50;100512.9;;;3.81
48628;BMP280;34424;52.234;6.500;2023-12-29T19:28:51;100517.4;;;3.74
48628;BMP280;34424;52.234;6.500;2023-12-29T19:33:50;100523.2;;;3.63
48628;BMP280;34424;52.234;6.500;2023-12-29T19:38:50;100518.9;;;3.52
48628;BMP280;34424;52.234;6.500;2023-12-29T19:43:51;100521.6;;;3.47
48628;BMP280;34424;52.234;6.500;2023-12-29T19:48:51;100518.8;;;3.41
48628;BMP280;34424;52.234;6.500;2023-12-29T19:53:51;100524.8;;;3.4
48628;BMP280;34424;52.234;6.500;2023-12-29T19:58:51;100522.3;;;3.38
48628;BMP280;34424;52.234;6.500;2023-12-29T20:03:51;100525.5;;;3.33
48628;BMP280;34424;52.234;6.500;2023-12-29T20:08:51;100536;;;3.36
48628;BMP280;34424;52.234;6.500;2023-12-29T20:13:51;100536.6;;;3.39
48628;BMP280;34424;52.234;6.500;2023-12-29T20:18:51;100527.2;;;3.45
48628;BMP280;34424;52.234;6.500;2023-12-29T20:23:51;100534.8;;;3.55
48628;BMP280;34424;52.234;6.500;2023-12-29T20:28:51;100531.6;;;3.57
48628;BMP280;34424;52.234;6.500;2023-12-29T20:33:51;100527.9;;;3.53
48628;BMP280;34424;52.234;6.500;2023-12-29T20:38:51;100518.9;;;3.54
48628;BMP280;34424;52.234;6.500;2023-12-29T20:43:51;100506.7;;;3.54
48628;BMP280;34424;52.234;6.500;2023-12-29T20:48:51;100507;;;3.52
48628;BMP280;34424;52.234;6.500;2023-12-29T20:53:51;100519.8;;;3.49
48628;BMP280;34424;52.234;6.500;2023-12-29T20:58:51;100513.6;;;3.47
48628;BMP280;34424;52.234;6.500;2023-12-29T21:03:51;100522.1;;;3.44
48628;BMP280;34424;52.234;6.500;2023-12-29T21:08:51;100521.1;;;3.48
48628;BMP280;34424;52.234;6.500;2023-12-29T21:13:51;100518.9;;;3.71
48628;BMP280;34424;52.234;6.500;2023-12-29T21:18:51;100527.2;;;4.05
48628;BMP280;34424;52.234;6.500;2023-12-29T21:23:51;100540.2;;;4.32
48628;BMP280;34424;52.234;6.500;2023-12-29T21:28:51;100566.4;;;4.6
48628;BMP280;34424;52.234;6.500;2023-12-29T21:33:51;100579.4;;;4.79
48628;BMP280;34424;52.234;6.500;2023-12-29T21:38:51;100605.4;;;4.94
48628;BMP280;34424;52.234;6.500;2023-12-29T21:43:51;100613.4;;;4.93
48628;BMP280;34424;52.234;6.500;2023-12-29T21:48:51;100577.6;;;4.73
48628;BMP280;34424;52.234;6.500;2023-12-29T21:53:51;100533.8;;;4.62
48628;BMP280;34424;52.234;6.500;2023-12-29T21:58:51;100557.2;;;4.6
48628;BMP280;34424;52.234;6.500;2023-12-29T22:03:51;100562.6;;;4.54
48628;BMP280;34424;52.234;6.500;2023-12-29T22:08:51;100525.8;;;4.55
48628;BMP280;34424;52.234;6.500;2023-12-29T22:13:51;100530.8;;;4.52
48628;BMP280;34424;52.234;6.500;2023-12-29T22:18:51;100536;;;4.35
48628;BMP280;34424;52.234;6.500;2023-12-29T22:23:51;100568.6;;;4.24
48628;BMP280;34424;52.234;6.500;2023-12-29T22:28:51;100570.5;;;4.17
48628;BMP280;34424;52.234;6.500;2023-12-29T22:33:51;100574.5;;;4.07
48628;BMP280;34424;52.234;6.500;2023-12-29T22:38:51;100575.3;;;4.1
48628;BMP280;34424;52.234;6.500;2023-12-29T22:43:51;100585.1;;;4.13
48628;BMP280;34424;52.234;6.500;2023-12-29T22:48:51;100581.9;;;3.9
48628;BMP280;34424;52.234;6.500;2023-12-29T22:53:51;100585.8;;;3.95
48628;BMP280;34424;52.234;6.500;2023-12-29T22:58:51;100591.3;;;3.74
48628;BMP280;34424;52.234;6.500;2023-12-29T23:03:51;100595;;;3.74
48628;BMP280;34424;52.234;6.500;2023-12-29T23:08:51;100612.2;;;3.63
48628;BMP280;34424;52.234;6.500;2023-12-29T23:13:51;100610.1;;;3.45
48628;BMP280;34424;52.234;6.500;2023-12-29T23:18:51;100616.6;;;3.42
48628;BMP280;34424;52.234;6.500;2023-12-29T23:23:51;100622.5;;;3.3
48628;BMP280;34424;52.234;6.500;2023-12-29T23:28:51;100626.3;;;3.3
48628;BMP280;34424;52.234;6.500;2023-12-29T23:33:51;100637.5;;;3.32
48628;BMP280;34424;52.234;6.500;2023-12-29T23:38:51;100651.3;;;3.34
48628;BMP280;34424;52.234;6.500;2023-12-29T23:43:51;100654.2;;;3.18
48628;BMP280;34424;52.234;6.500;2023-12-29T23:48:51;100655.7;;;3.28
48628;BMP280;34424;52.234;6.500;2023-12-29T23:53:51;100661.9;;;3.09
48628;BMP280;34424;52.234;6.500;2023-12-29T23:58:51;100655;;;3.22
